Time;durP1;ratioP1;P1;durP2;ratioP2;P2;SDS_P1;SDS_P2;PMS_P1;PMS_P2;Temp;Humidity;BMP_temperature;BMP_pressure;BME280_temperature;BME280_humidity;BME280_pressure;Samples;Min_cycle;Max_cycle;Signal;HPM_P1;HPM_P2
2021/08/31 00:02:12;;;;;;;17.35;12.63;;;13.90;99.90;;;;;;5074702;28;20044;-92
2021/08/31 00:04:39;;;;;;;15.82;13.00;;;14.00;99.90;;;;;;5073571;28;20878;-93
2021/08/31 00:07:06;;;;;;;20.02;13.43;;;14.00;99.90;;;;;;5073326;28;20048;-93
2021/08/31 00:09:32;;;;;;;16.25;12.65;;;14.10;99.90;;;;;;5073795;28;20044;-92
2021/08/31 00:11:59;;;;;;;21.05;14.15;;;14.10;99.90;;;;;;5073740;28;20052;-93
2021/08/31 00:14:26;;;;;;;19.50;13.88;;;14.10;99.90;;;;;;5073653;28;20112;-93
2021/08/31 00:16:53;;;;;;;21.73;14.40;;;14.00;99.90;;;;;;5073606;28;20052;-93
2021/08/31 00:19:19;;;;;;;18.27;12.20;;;14.00;99.90;;;;;;5073134;28;20071;-93
2021/08/31 00:21:47;;;;;;;20.27;13.13;;;13.90;99.90;;;;;;5073288;28;20056;-93
2021/08/31 00:24:14;;;;;;;19.08;13.02;;;14.00;99.90;;;;;;5072603;28;20141;-92
2021/08/31 00:26:41;;;;;;;19.85;13.57;;;14.00;99.90;;;;;;5073395;28;20132;-93
2021/08/31 00:29:08;;;;;;;18.10;12.20;;;14.00;99.90;;;;;;5073012;28;20416;-93
2021/08/31 00:31:34;;;;;;;20.10;12.85;;;14.00;99.90;;;;;;5073465;28;20128;-93
2021/08/31 00:34:01;;;;;;;21.73;13.68;;;14.00;99.90;;;;;;5073189;28;20049;-93
2021/08/31 00:36:28;;;;;;;20.65;14.93;;;14.00;99.90;;;;;;5073076;28;20108;-92
2021/08/31 00:38:57;;;;;;;21.48;15.23;;;13.90;99.90;;;;;;5073385;28;20052;-93
2021/08/31 00:41:25;;;;;;;18.40;13.52;;;14.00;99.90;;;;;;5073273;28;20131;-93
2021/08/31 00:43:53;;;;;;;19.42;13.75;;;14.00;99.90;;;;;;5073557;28;20044;-94
2021/08/31 00:46:22;;;;;;;23.60;14.48;;;13.90;99.90;;;;;;5085400;28;20095;-92
2021/08/31 00:48:52;;;;;;;18.73;12.90;;;13.90;99.90;;;;;;5094049;28;20127;-93
2021/08/31 00:51:21;;;;;;;17.50;12.73;;;13.90;99.90;;;;;;5074100;28;20051;-92
2021/08/31 00:53:51;;;;;;;23.55;14.48;;;13.90;99.90;;;;;;5073459;28;20135;-93
2021/08/31 00:56:20;;;;;;;17.45;12.65;;;14.00;99.90;;;;;;5073186;28;20131;-92
2021/08/31 00:58:46;;;;;;;16.80;13.70;;;14.00;99.90;;;;;;5072963;28;20052;-93
2021/08/31 01:01:13;;;;;;;19.65;12.82;;;14.00;99.90;;;;;;5072815;28;20103;-93
2021/08/31 01:03:42;;;;;;;19.05;13.73;;;14.00;99.90;;;;;;5072879;28;20533;-93
2021/08/31 01:06:09;;;;;;;25.38;14.40;;;14.00;99.90;;;;;;5073005;28;20386;-93
2021/08/31 01:08:36;;;;;;;21.33;13.70;;;13.90;99.90;;;;;;5072850;28;20458;-90
2021/08/31 01:11:04;;;;;;;21.42;13.98;;;13.80;99.90;;;;;;5072882;28;20516;-90
2021/08/31 01:13:35;;;;;;;17.75;13.70;;;13.80;99.90;;;;;;5072424;28;20049;-91
2021/08/31 01:16:03;;;;;;;18.67;14.00;;;13.80;99.90;;;;;;5072357;28;20051;-90
2021/08/31 01:18:30;;;;;;;21.33;14.65;;;13.80;99.90;;;;;;5072435;28;20048;-92
2021/08/31 01:20:59;;;;;;;19.52;12.98;;;13.80;99.90;;;;;;5072628;28;20123;-91
2021/08/31 01:23:27;;;;;;;19.85;13.25;;;13.80;99.90;;;;;;5072761;28;20049;-92
2021/08/31 01:25:55;;;;;;;14.77;12.93;;;13.80;99.90;;;;;;5072800;28;20127;-90
2021/08/31 01:28:28;;;;;;;19.08;13.77;;;13.70;99.90;;;;;;5072487;28;20056;-92
2021/08/31 01:30:55;;;;;;;;;;;13.70;99.90;;;;;;5073021;28;20052;-91
2021/08/31 01:33:26;;;;;;;17.35;13.55;;;13.80;99.90;;;;;;5072684;28;20011;-92
2021/08/31 01:35:53;;;;;;;18.98;15.45;;;13.80;99.90;;;;;;5078204;28;20062;-89
2021/08/31 01:38:20;;;;;;;20.45;13.02;;;13.70;99.90;;;;;;5079235;28;20049;-90
2021/08/31 01:40:46;;;;;;;19.45;14.13;;;13.70;99.90;;;;;;5078962;28;20485;-90
2021/08/31 01:43:24;;;;;;;19.60;12.98;;;13.70;99.90;;;;;;5079220;28;20055;-90
2021/08/31 01:45:51;;;;;;;20.73;14.07;;;13.70;99.90;;;;;;5078962;28;20048;-90
2021/08/31 01:48:18;;;;;;;18.95;14.48;;;13.60;99.90;;;;;;5079103;28;20068;-91
2021/08/31 01:50:44;;;;;;;22.13;14.13;;;13.60;99.90;;;;;;5079066;28;20564;-91
2021/08/31 01:53:11;;;;;;;20.65;15.80;;;13.70;99.90;;;;;;5078978;28;20052;-89
2021/08/31 01:55:38;;;;;;;21.48;14.38;;;13.60;99.90;;;;;;5078761;28;20431;-91
2021/08/31 01:58:05;;;;;;;24.42;15.18;;;13.60;99.90;;;;;;5079044;28;20051;-91
2021/08/31 02:00:32;;;;;;;18.38;13.70;;;13.70;99.90;;;;;;5078810;28;20461;-92
2021/08/31 02:02:59;;;;;;;18.70;13.43;;;13.60;99.90;;;;;;5078994;28;20048;-92
2021/08/31 02:05:27;;;;;;;21.50;14.05;;;13.70;99.90;;;;;;5089819;28;20040;-91
2021/08/31 02:07:53;;;;;;;30.92;15.02;;;13.60;99.90;;;;;;5097192;28;20127;-91
2021/08/31 02:10:20;;;;;;;17.77;14.38;;;13.60;99.90;;;;;;5079625;28;20451;-92
2021/08/31 02:12:47;;;;;;;19.25;14.13;;;13.60;99.90;;;;;;5078580;28;20504;-92
2021/08/31 02:15:14;;;;;;;20.63;13.75;;;13.70;99.90;;;;;;5078493;28;20056;-92
2021/08/31 02:17:41;;;;;;;18.90;13.02;;;13.70;99.90;;;;;;5078803;28;20123;-92
2021/08/31 02:20:09;;;;;;;19.02;13.75;;;13.70;99.90;;;;;;5078160;28;20139;-93
2021/08/31 02:22:38;;;;;;;17.80;13.40;;;13.70;99.90;;;;;;5078363;28;20485;-93
2021/08/31 02:25:05;;;;;;;17.08;12.80;;;13.70;99.90;;;;;;5078444;28;20054;-93
2021/08/31 02:27:32;;;;;;;20.33;13.77;;;13.80;99.90;;;;;;5078580;28;20044;-92
2021/08/31 02:29:59;;;;;;;24.17;13.05;;;13.80;99.90;;;;;;5078075;28;20057;-93
2021/08/31 02:32:26;;;;;;;17.23;12.90;;;13.70;99.90;;;;;;5078447;28;20179;-92
2021/08/31 02:34:52;;;;;;;19.90;13.90;;;13.70;99.90;;;;;;5078370;28;20481;-92
2021/08/31 02:37:19;;;;;;;17.45;13.27;;;13.80;99.90;;;;;;5078257;28;20503;-93
2021/08/31 02:39:46;;;;;;;19.48;13.18;;;13.80;99.90;;;;;;5078108;28;20048;-93
2021/08/31 02:42:12;;;;;;;21.77;13.73;;;13.80;99.90;;;;;;5078261;28;20133;-93
2021/08/31 02:44:39;;;;;;;21.73;13.30;;;13.90;99.90;;;;;;5078175;28;20048;-93
2021/08/31 02:47:06;;;;;;;18.60;13.13;;;13.90;99.90;;;;;;5074751;28;20048;-93
2021/08/31 02:49:33;;;;;;;17.02;12.82;;;13.80;99.90;;;;;;5075044;28;20471;-92
2021/08/31 02:52:00;;;;;;;23.90;13.52;;;13.80;99.90;;;;;;5074932;28;20416;-92
2021/08/31 02:54:26;;;;;;;16.55;12.35;;;13.70;99.90;;;;;;5074958;28;20075;-93
2021/08/31 02:56:53;;;;;;;18.70;12.38;;;13.60;99.90;;;;;;5074792;28;20131;-93
2021/08/31 02:59:20;;;;;;;18.52;12.70;;;13.70;99.90;;;;;;5074801;28;20048;-93
2021/08/31 03:02:05;;;;;;;17.63;12.18;;;13.70;99.90;;;;;;5074646;28;20166;-94
2021/08/31 03:04:37;;;;;;;15.30;10.93;;;13.60;99.90;;;;;;5075173;28;20078;-93
2021/08/31 03:07:06;;;;;;;33.72;13.10;;;13.50;99.90;;;;;;5074701;28;20127;-93
2021/08/31 03:09:33;;;;;;;21.73;10.68;;;13.60;99.90;;;;;;5074863;28;20064;-94
2021/08/31 03:12:00;;;;;;;19.63;11.27;;;13.70;99.90;;;;;;5074864;28;20527;-93
2021/08/31 03:14:28;;;;;;;13.73;10.90;;;13.60;99.90;;;;;;5074434;28;20052;-94
2021/08/31 03:16:56;;;;;;;13.65;10.80;;;13.70;99.90;;;;;;5074866;28;20059;-93
2021/08/31 03:19:24;;;;;;;14.30;11.20;;;13.70;99.90;;;;;;5074013;28;20055;-94
2021/08/31 03:21:52;;;;;;;15.32;10.80;;;13.60;99.90;;;;;;5074715;28;20052;-94
2021/08/31 03:24:19;;;;;;;14.05;10.57;;;13.60;99.90;;;;;;5083521;28;20066;-92
2021/08/31 03:26:46;;;;;;;17.17;11.80;;;13.60;99.90;;;;;;5098723;28;20096;-94
2021/08/31 03:29:14;;;;;;;15.60;10.63;;;13.70;99.90;;;;;;5078869;28;20052;-92
2021/08/31 03:31:41;;;;;;;11.77;10.13;;;13.60;99.90;;;;;;5074780;28;20139;-93
2021/08/31 03:34:08;;;;;;;14.85;11.00;;;13.60;99.90;;;;;;5074458;28;20576;-94
2021/08/31 03:36:34;;;;;;;14.60;11.20;;;13.70;99.90;;;;;;5074388;28;20083;-94
2021/08/31 03:39:02;;;;;;;13.25;10.25;;;13.70;99.90;;;;;;5074309;28;20048;-94
2021/08/31 03:41:29;;;;;;;14.70;10.65;;;13.70;99.90;;;;;;5074480;28;20500;-94
2021/08/31 03:43:56;;;;;;;16.65;11.63;;;13.70;99.90;;;;;;5074993;28;20074;-94
2021/08/31 03:46:22;;;;;;;13.45;11.15;;;13.80;99.90;;;;;;5074641;28;20054;-94
2021/08/31 03:48:49;;;;;;;19.67;11.75;;;13.80;99.90;;;;;;5074650;28;20060;-94
2021/08/31 03:51:16;;;;;;;14.75;12.52;;;13.80;99.90;;;;;;5073320;28;20489;-94
2021/08/31 03:53:43;;;;;;;14.93;10.95;;;13.80;99.90;;;;;;5072998;28;20044;-93
2021/08/31 03:56:10;;;;;;;16.20;11.45;;;13.80;99.90;;;;;;5072395;28;20472;-93
2021/08/31 03:58:37;;;;;;;12.57;10.45;;;13.80;99.90;;;;;;5071915;28;20412;-94
2021/08/31 04:01:04;;;;;;;14.32;11.00;;;13.80;99.90;;;;;;5072687;28;20148;-93
2021/08/31 04:03:31;;;;;;;16.08;11.60;;;13.80;99.90;;;;;;5071319;28;20052;-93
2021/08/31 04:05:57;;;;;;;14.23;11.18;;;13.80;99.90;;;;;;5074896;28;20052;-94
2021/08/31 04:08:24;;;;;;;14.20;10.88;;;13.70;99.90;;;;;;5073899;28;20106;-93
2021/08/31 04:10:51;;;;;;;15.88;12.07;;;13.80;99.90;;;;;;5074625;28;20052;-94
2021/08/31 04:13:18;;;;;;;18.55;12.15;;;13.70;99.90;;;;;;5073737;28;20396;-94
2021/08/31 04:15:47;;;;;;;18.75;10.57;;;13.70;99.90;;;;;;5073627;28;20408;-93
2021/08/31 04:18:14;;;;;;;14.27;10.10;;;13.70;99.90;;;;;;5073462;28;20123;-93
2021/08/31 04:20:40;;;;;;;11.43;10.23;;;13.70;99.90;;;;;;5073349;28;20135;-94
2021/08/31 04:23:09;;;;;;;14.88;9.90;;;13.60;99.90;;;;;;5073705;28;20048;-93
2021/08/31 04:25:36;;;;;;;14.93;10.35;;;13.70;99.90;;;;;;5073472;28;20046;-93
2021/08/31 04:28:03;;;;;;;13.60;10.05;;;13.60;99.90;;;;;;5073285;28;20060;-93
2021/08/31 04:30:30;;;;;;;10.68;9.38;;;13.50;99.90;;;;;;5073431;28;20144;-94
2021/08/31 04:32:58;;;;;;;16.55;10.48;;;13.60;99.90;;;;;;5073286;28;20059;-93
2021/08/31 04:35:25;;;;;;;14.55;10.55;;;13.60;99.90;;;;;;5073274;28;20060;-93
2021/08/31 04:37:52;;;;;;;11.43;9.35;;;13.60;99.90;;;;;;5073350;28;20048;-93
2021/08/31 04:40:19;;;;;;;12.35;10.32;;;13.60;99.90;;;;;;5073229;28;20098;-93
2021/08/31 04:42:46;;;;;;;16.23;11.30;;;13.60;99.90;;;;;;5075151;28;20045;-93
2021/08/31 04:45:13;;;;;;;16.55;10.48;;;13.70;99.90;;;;;;5097854;28;20067;-92
2021/08/31 04:47:40;;;;;;;15.90;10.82;;;13.60;99.90;;;;;;5085485;28;20080;-93
2021/08/31 04:50:07;;;;;;;11.75;9.73;;;13.60;99.90;;;;;;5073065;28;20083;-93
2021/08/31 04:52:34;;;;;;;14.88;11.10;;;13.60;99.90;;;;;;5072780;28;20466;-94
2021/08/31 04:55:01;;;;;;;19.10;10.77;;;13.70;99.90;;;;;;5073113;28;20139;-93
2021/08/31 04:57:28;;;;;;;18.50;11.77;;;13.70;99.90;;;;;;5073705;28;20066;-94
2021/08/31 04:59:55;;;;;;;13.38;10.65;;;13.70;99.90;;;;;;5072138;28;20131;-93
2021/08/31 05:02:21;;;;;;;14.45;11.10;;;13.70;99.90;;;;;;5073194;28;20127;-91
2021/08/31 05:04:48;;;;;;;21.67;11.38;;;13.60;99.90;;;;;;5072071;28;20082;-93
2021/08/31 05:07:15;;;;;;;13.57;10.48;;;13.60;99.90;;;;;;5072827;28;20040;-93
2021/08/31 05:09:42;;;;;;;14.35;10.63;;;13.60;99.90;;;;;;5076392;28;20061;-94
2021/08/31 05:12:23;;;;;;;357.83;254.60;;;13.50;99.90;;;;;;5087174;28;20052;-93
2021/08/31 05:14:50;;;;;;;121.95;90.13;;;13.50;99.90;;;;;;5073074;28;20147;-93
2021/08/31 05:17:17;;;;;;;19.60;13.57;;;13.50;99.90;;;;;;5073122;28;20139;-89
2021/08/31 05:19:43;;;;;;;26.95;13.65;;;13.50;99.90;;;;;;5072990;28;20481;-93
2021/08/31 05:22:10;;;;;;;17.50;10.20;;;13.40;99.90;;;;;;5073441;28;20058;-92
2021/08/31 05:24:38;;;;;;;27.10;13.85;;;13.50;99.90;;;;;;5072790;28;20095;-92
2021/08/31 05:27:05;;;;;;;45.40;14.98;;;13.40;99.90;;;;;;5072863;28;20127;-93
2021/08/31 05:29:32;;;;;;;20.95;12.82;;;13.40;99.90;;;;;;5073650;28;20060;-92
2021/08/31 05:31:59;;;;;;;15.38;10.90;;;13.40;99.90;;;;;;5072705;28;20053;-93
2021/08/31 05:34:26;;;;;;;19.98;12.68;;;13.50;99.90;;;;;;5073803;28;20041;-92
2021/08/31 05:36:57;;;;;;;19.13;10.82;;;13.60;99.90;;;;;;5073160;28;20440;-93
2021/08/31 05:39:25;;;;;;;18.02;11.77;;;13.60;99.90;;;;;;5073684;28;20139;-92
2021/08/31 05:41:52;;;;;;;18.30;12.10;;;13.60;99.90;;;;;;5073686;28;20049;-92
2021/08/31 05:44:19;;;;;;;13.73;10.73;;;13.60;99.90;;;;;;5073721;28;20084;-92
2021/08/31 05:46:45;;;;;;;17.33;10.45;;;13.60;99.90;;;;;;5072642;28;20127;-92
2021/08/31 05:49:12;;;;;;;16.13;11.00;;;13.70;99.90;;;;;;5073360;28;20481;-91
2021/08/31 05:51:39;;;;;;;14.23;9.90;;;13.70;99.90;;;;;;5072651;28;20074;-90
2021/08/31 05:54:06;;;;;;;12.75;9.88;;;13.70;99.90;;;;;;5072428;28;20051;-91
2021/08/31 05:56:32;;;;;;;20.52;10.30;;;13.80;99.90;;;;;;5072640;28;20063;-91
2021/08/31 05:58:59;;;;;;;11.85;9.32;;;13.80;99.90;;;;;;5072439;28;20672;-91
2021/08/31 06:01:26;;;;;;;19.60;9.68;;;13.80;99.90;;;;;;5076026;28;20543;-91
2021/08/31 06:03:53;;;;;;;11.75;9.88;;;13.90;99.90;;;;;;5094537;28;20072;-92
2021/08/31 06:06:20;;;;;;;12.18;9.70;;;13.70;99.90;;;;;;5082554;28;20139;-91
2021/08/31 06:08:46;;;;;;;12.15;8.98;;;13.80;99.90;;;;;;5072857;28;20465;-91
2021/08/31 06:11:17;;;;;;;12.25;9.68;;;13.90;99.90;;;;;;5072822;28;20048;-91
2021/08/31 06:13:44;;;;;;;13.13;9.43;;;13.90;99.90;;;;;;5072773;28;20059;-91
2021/08/31 06:16:10;;;;;;;11.65;9.80;;;13.90;99.90;;;;;;5073584;28;20063;-91
2021/08/31 06:18:37;;;;;;;14.18;10.50;;;14.00;99.90;;;;;;5072918;28;20045;-90
2021/08/31 06:21:04;;;;;;;14.23;11.00;;;14.00;99.90;;;;;;5072569;28;20503;-90
2021/08/31 06:23:31;;;;;;;22.05;13.48;;;14.10;99.90;;;;;;5076723;28;20505;-91
2021/08/31 06:25:57;;;;;;;32.58;12.32;;;14.10;99.90;;;;;;5076393;28;20416;-91
2021/08/31 06:28:24;;;;;;;12.50;9.63;;;14.00;99.90;;;;;;5076147;28;20123;-91
2021/08/31 06:30:51;;;;;;;14.07;9.98;;;14.10;99.90;;;;;;5076265;28;20055;-91
2021/08/31 06:33:17;;;;;;;11.57;9.65;;;14.20;99.90;;;;;;5076325;28;20123;-91
2021/08/31 06:35:44;;;;;;;16.05;9.35;;;14.30;99.90;;;;;;5076317;28;20048;-91
2021/08/31 06:38:11;;;;;;;9.55;8.25;;;14.30;99.90;;;;;;5076308;28;20500;-91
2021/08/31 06:40:37;;;;;;;12.95;9.35;;;14.40;99.90;;;;;;5075774;28;20048;-91
2021/08/31 06:43:04;;;;;;;11.10;7.95;;;14.50;99.90;;;;;;5076292;28;20131;-89
2021/08/31 06:45:31;;;;;;;12.32;8.32;;;14.60;99.90;;;;;;5076188;28;20176;-91
2021/08/31 06:47:58;;;;;;;10.20;7.80;;;14.60;99.90;;;;;;5075889;28;20048;-91
2021/08/31 06:50:25;;;;;;;12.43;7.82;;;14.60;99.90;;;;;;5075771;28;20135;-92
2021/08/31 06:52:51;;;;;;;13.82;8.02;;;14.60;99.90;;;;;;5075872;28;20048;-90
2021/08/31 06:55:18;;;;;;;9.10;6.65;;;14.60;99.90;;;;;;5075964;28;20048;-91
2021/08/31 06:57:45;;;;;;;11.40;7.93;;;14.60;99.90;;;;;;5075563;28;20484;-90
2021/08/31 07:00:12;;;;;;;38.35;14.40;;;14.50;99.90;;;;;;5075847;28;20139;-91
2021/08/31 07:02:40;;;;;;;12.55;7.68;;;14.50;99.90;;;;;;5075595;28;20045;-91
2021/08/31 07:05:07;;;;;;;9.77;6.93;;;14.50;99.90;;;;;;5075369;28;20056;-90
2021/08/31 07:07:34;;;;;;;9.50;6.88;;;14.50;99.90;;;;;;5075346;28;20048;-91
2021/08/31 07:10:01;;;;;;;6.78;6.10;;;14.60;99.90;;;;;;5075694;28;20072;-90
2021/08/31 07:12:27;;;;;;;13.07;7.00;;;14.60;99.90;;;;;;5075466;28;20477;-90
2021/08/31 07:14:54;;;;;;;10.15;6.30;;;14.70;99.90;;;;;;5075220;28;20056;-90
2021/08/31 07:17:21;;;;;;;9.63;6.63;;;14.70;99.90;;;;;;5075232;28;20132;-91
2021/08/31 07:19:48;;;;;;;10.38;6.55;;;14.70;99.90;;;;;;5076251;28;20060;-90
2021/08/31 07:22:20;;;;;;;10.13;6.57;;;14.70;99.90;;;;;;5089931;28;20056;-91
2021/08/31 07:24:47;;;;;;;10.40;7.00;;;14.60;99.90;;;;;;5085382;28;20048;-90
2021/08/31 07:27:14;;;;;;;11.60;6.65;;;14.50;99.90;;;;;;5074960;28;20048;-90
2021/08/31 07:29:41;;;;;;;12.73;7.13;;;14.50;99.90;;;;;;5074446;28;20521;-89
2021/08/31 07:32:09;;;;;;;8.35;6.70;;;14.40;99.90;;;;;;5057355;28;20048;-90
2021/08/31 07:34:39;;;;;;;8.60;7.40;;;14.40;99.90;;;;;;5074702;28;20058;-90
2021/08/31 07:37:06;;;;;;;8.27;6.07;;;14.50;99.90;;;;;;5074469;28;20044;-90
2021/08/31 07:39:33;;;;;;;9.65;6.97;;;14.60;99.90;;;;;;5074417;28;20044;-90
2021/08/31 07:42:01;;;;;;;8.02;6.10;;;14.70;99.90;;;;;;5074515;28;20048;-90
2021/08/31 07:44:28;;;;;;;8.77;6.53;;;14.80;99.90;;;;;;5075203;28;20049;-90
2021/08/31 07:46:56;;;;;;;7.07;6.00;;;14.90;99.90;;;;;;5074459;28;20110;-90
2021/08/31 07:49:23;;;;;;;6.47;5.88;;;15.00;99.90;;;;;;5074255;28;20058;-90
2021/08/31 07:51:50;;;;;;;8.43;5.65;;;15.20;99.90;;;;;;5074430;28;20045;-90
2021/08/31 07:54:17;;;;;;;8.35;6.40;;;15.40;99.90;;;;;;5075117;28;20135;-90
2021/08/31 07:56:44;;;;;;;10.52;5.65;;;15.40;99.90;;;;;;5074170;28;20086;-91
2021/08/31 07:59:11;;;;;;;7.35;6.22;;;15.50;99.90;;;;;;5074164;28;20094;-90
2021/08/31 08:01:38;;;;;;;7.78;5.85;;;15.50;99.90;;;;;;5074906;28;20568;-89
2021/08/31 08:04:05;;;;;;;6.30;5.70;;;15.60;99.90;;;;;;5074318;28;20052;-90
2021/08/31 08:06:31;;;;;;;5.90;5.13;;;15.60;99.90;;;;;;5074239;28;20052;-90
2021/08/31 08:08:58;;;;;;;6.68;5.40;;;15.80;99.90;;;;;;5074226;28;20468;-90
2021/08/31 08:11:25;;;;;;;10.60;5.47;;;15.80;99.90;;;;;;5073761;28;20044;-90
2021/08/31 08:13:52;;;;;;;5.85;5.07;;;15.80;99.90;;;;;;5074103;28;20179;-90
2021/08/31 08:16:20;;;;;;;7.50;5.65;;;16.00;99.90;;;;;;5073932;28;20044;-91
2021/08/31 08:18:48;;;;;;;18.10;6.75;;;16.30;99.90;;;;;;5073853;28;20053;-90
2021/08/31 08:21:15;;;;;;;20.77;9.13;;;16.30;99.90;;;;;;5073822;28;20056;-90
2021/08/31 08:23:42;;;;;;;22.05;8.45;;;16.50;99.90;;;;;;5073890;28;20139;-90
2021/08/31 08:26:09;;;;;;;15.60;7.22;;;16.70;99.90;;;;;;5073541;28;20055;-91
2021/08/31 08:28:37;;;;;;;14.43;7.18;;;16.50;99.90;;;;;;5073336;28;20130;-90
2021/08/31 08:31:05;;;;;;;13.32;6.65;;;16.40;99.90;;;;;;5073697;28;20139;-90
2021/08/31 08:33:33;;;;;;;8.05;5.72;;;16.40;99.90;;;;;;5073506;28;20045;-92
2021/08/31 08:36:01;;;;;;;10.30;5.93;;;16.50;99.90;;;;;;5073906;28;20048;-91
2021/08/31 08:38:28;;;;;;;5.20;4.70;;;16.60;99.90;;;;;;5073914;28;20131;-90
2021/08/31 08:40:57;;;;;;;6.35;5.32;;;16.80;99.90;;;;;;5081927;28;20051;-90
2021/08/31 08:43:24;;;;;;;6.22;4.85;;;16.80;99.90;;;;;;5089032;28;20113;-90
2021/08/31 08:45:51;;;;;;;7.13;4.80;;;16.70;99.90;;;;;;5073780;28;20062;-90
2021/08/31 08:48:24;;;;;;;6.95;5.22;;;16.70;99.90;;;;;;5073320;28;20064;-91
2021/08/31 08:50:54;;;;;;;9.38;5.57;;;16.60;99.90;;;;;;5073169;28;20554;-91
2021/08/31 08:53:22;;;;;;;12.00;5.60;;;16.30;99.90;;;;;;5073141;28;20401;-90
2021/08/31 08:55:49;;;;;;;14.85;8.10;;;16.30;99.90;;;;;;5073564;28;20053;-91
2021/08/31 08:58:16;;;;;;;19.35;12.00;;;16.40;99.90;;;;;;5073143;28;20056;-91
2021/08/31 09:01:10;;;;;;;19.08;8.77;;;16.40;99.90;;;;;;5072958;28;20534;-91
2021/08/31 09:03:40;;;;;;;14.48;11.38;;;16.60;99.90;;;;;;5073232;28;20083;-91
2021/08/31 09:06:17;;;;;;;58.22;31.27;;;16.70;99.90;;;;;;5073854;28;20545;-91
2021/08/31 09:08:54;;;;;;;28.08;15.52;;;16.40;99.90;;;;;;5073031;28;20075;-91
2021/08/31 09:11:32;;;;;;;14.57;8.70;;;16.40;99.90;;;;;;5072896;28;20059;-89
2021/08/31 09:14:27;;;;;;;9.73;6.75;;;16.60;99.90;;;;;;5072915;28;20052;-90
2021/08/31 09:16:56;;;;;;;9.15;6.40;;;16.90;99.90;;;;;;5072887;28;20385;-90
2021/08/31 09:19:30;;;;;;;26.48;16.67;;;17.00;99.90;;;;;;5072936;28;20568;-90
2021/08/31 09:22:16;;;;;;;12.65;9.25;;;17.00;99.90;;;;;;5072552;28;20416;-89
2021/08/31 09:25:02;;;;;;;15.45;9.77;;;17.10;99.90;;;;;;5072719;28;20048;-91
2021/08/31 09:27:41;;;;;;;7.18;5.65;;;16.90;99.90;;;;;;5073919;28;20131;-90
2021/08/31 09:30:18;;;;;;;9.00;5.97;;;17.10;99.90;;;;;;5072825;28;20049;-91
2021/08/31 09:33:06;;;;;;;12.70;6.95;;;17.20;99.90;;;;;;5072820;28;20058;-91
2021/08/31 09:35:42;;;;;;;9.95;5.38;;;18.10;99.90;;;;;;5072744;28;20045;-90
2021/08/31 09:38:14;;;;;;;7.65;4.85;;;19.70;99.90;;;;;;5072456;28;20131;-91
2021/08/31 09:40:44;;;;;;;8.52;6.53;;;21.90;99.90;;;;;;5072463;28;20055;-87
2021/08/31 09:43:17;;;;;;;9.90;7.07;;;21.80;99.90;;;;;;5072784;28;20047;-90
2021/08/31 09:45:46;;;;;;;7.30;5.13;;;21.80;99.90;;;;;;5072629;28;20485;-89
2021/08/31 09:48:14;;;;;;;6.03;4.90;;;21.50;99.90;;;;;;5072458;28;20070;-89
2021/08/31 09:50:47;;;;;;;8.70;5.72;;;20.90;99.90;;;;;;5072686;28;20044;-89
2021/08/31 09:53:19;;;;;;;12.93;7.72;;;20.20;99.90;;;;;;5072582;28;20059;-87
2021/08/31 09:56:03;;;;;;;6.20;5.60;;;19.90;99.90;;;;;;5073688;28;20053;-87
2021/08/31 09:58:33;;;;;;;20.98;6.88;;;19.60;99.90;;;;;;5076898;28;20049;-87
2021/08/31 10:01:00;;;;;;;15.63;6.88;;;19.40;99.90;;;;;;5092182;28;20112;-87
2021/08/31 10:03:28;;;;;;;6.03;5.53;;;18.80;99.90;;;;;;5082464;28;20044;-86
2021/08/31 10:05:58;;;;;;;7.75;6.78;;;18.10;99.90;;;;;;5076436;28;20131;-87
2021/08/31 10:08:25;;;;;;;12.40;6.22;;;17.90;99.90;;;;;;5076124;28;20055;-86
2021/08/31 10:10:54;;;;;;;8.63;6.70;;;17.90;99.90;;;;;;5076080;28;20487;-87
2021/08/31 10:13:25;;;;;;;12.65;7.57;;;17.90;99.90;;;;;;5076027;28;20045;-86
2021/08/31 10:15:54;;;;;;;8.73;6.00;;;18.00;99.90;;;;;;5075913;28;20140;-87
2021/08/31 10:18:23;;;;;;;14.13;6.53;;;18.20;99.90;;;;;;5076071;28;20469;-88
2021/08/31 10:20:53;;;;;;;27.88;7.50;;;18.60;99.90;;;;;;5075816;28;20413;-86
2021/08/31 10:23:29;;;;;;;17.25;6.75;;;18.60;99.90;;;;;;5076137;28;20068;-86
2021/08/31 10:26:27;;;;;;;8.13;6.43;;;18.60;99.90;;;;;;5075706;28;20128;-86
2021/08/31 10:29:13;;;;;;;8.45;5.55;;;18.70;99.90;;;;;;5075388;28;20064;-86
2021/08/31 10:31:42;;;;;;;5.88;5.30;;;18.80;99.90;;;;;;5075728;28;20053;-86
2021/08/31 10:34:30;;;;;;;6.40;5.80;;;18.60;99.90;;;;;;5075505;28;20052;-86
2021/08/31 10:37:01;;;;;;;7.00;6.28;;;18.50;99.90;;;;;;5075879;28;20451;-86
2021/08/31 10:39:48;;;;;;;6.30;5.70;;;18.40;99.90;;;;;;5075696;28;20127;-86
2021/08/31 10:42:24;;;;;;;6.15;5.55;;;18.60;99.90;;;;;;5075261;28;20045;-86
2021/08/31 10:44:55;;;;;;;9.55;5.63;;;19.00;99.90;;;;;;5075363;28;20466;-86
2021/08/31 10:47:37;;;;;;;5.57;5.07;;;19.80;99.90;;;;;;5075470;28;20051;-86
2021/08/31 10:50:05;;;;;;;6.57;5.53;;;20.30;99.90;;;;;;5075069;28;20055;-87
2021/08/31 10:52:35;;;;;;;5.57;4.95;;;20.30;99.90;;;;;;5075129;28;20048;-86
2021/08/31 10:55:04;;;;;;;7.88;5.53;;;19.90;99.90;;;;;;5075974;28;20052;-86
2021/08/31 10:57:37;;;;;;;6.18;5.57;;;20.00;99.90;;;;;;5076170;28;20495;-86
2021/08/31 11:00:16;;;;;;;13.40;6.30;;;19.70;99.90;;;;;;5075043;28;20059;-86
2021/08/31 11:02:46;;;;;;;13.68;6.05;;;20.00;99.90;;;;;;5074932;28;20070;-86
2021/08/31 11:05:34;;;;;;;15.55;6.50;;;20.10;99.90;;;;;;5074788;28;20155;-86
2021/08/31 11:08:01;;;;;;;8.40;5.55;;;19.90;99.90;;;;;;5074043;28;20068;-86
2021/08/31 11:10:30;;;;;;;6.13;5.28;;;19.80;99.90;;;;;;5075655;28;20072;-86
2021/08/31 11:13:10;;;;;;;8.95;5.40;;;19.70;99.90;;;;;;5074097;28;20055;-85
2021/08/31 11:15:38;;;;;;;6.90;5.57;;;19.60;99.90;;;;;;5075548;28;20132;-87
2021/08/31 11:18:10;;;;;;;6.07;5.47;;;19.20;99.90;;;;;;5076435;28;20504;-88
2021/08/31 11:20:39;;;;;;;8.05;5.65;;;19.00;99.90;;;;;;5092492;28;20049;-84
2021/08/31 11:23:10;;;;;;;5.43;4.90;;;19.70;99.90;;;;;;5076118;28;20428;-84
2021/08/31 11:25:58;;;;;;;10.40;4.72;;;20.20;99.90;;;;;;5074805;28;20489;-86
2021/08/31 11:28:27;;;;;;;5.72;4.72;;;20.10;99.90;;;;;;5074143;28;20408;-85
2021/08/31 11:30:58;;;;;;;8.13;4.85;;;19.90;99.90;;;;;;5073939;28;20055;-85
2021/08/31 11:33:27;;;;;;;6.20;5.38;;;20.20;99.90;;;;;;5074398;28;20560;-87
2021/08/31 11:36:14;;;;;;;5.15;4.65;;;20.70;99.90;;;;;;5077729;28;20143;-87
2021/08/31 11:38:50;;;;;;;5.50;4.47;;;20.30;99.90;;;;;;5073768;28;20066;-86
2021/08/31 11:41:37;;;;;;;4.47;4.10;;;20.30;99.90;;;;;;5073622;28;20056;-85
2021/08/31 11:44:07;;;;;;;5.35;4.90;;;20.70;99.90;;;;;;5073583;28;20412;-85
2021/08/31 11:46:40;;;;;;;6.25;4.32;;;20.90;99.90;;;;;;5073902;28;20094;-85
2021/08/31 11:49:30;;;;;;;6.07;4.78;;;20.70;99.90;;;;;;5073615;28;20079;-85
2021/08/31 11:52:14;;;;;;;4.65;4.20;;;20.60;99.90;;;;;;5073572;28;20469;-85
2021/08/31 11:54:44;;;;;;;10.07;4.72;;;20.80;99.90;;;;;;5073210;28;20580;-85
2021/08/31 11:57:15;;;;;;;4.70;4.30;;;20.60;99.90;;;;;;5073569;28;20045;-85
2021/08/31 11:59:48;;;;;;;5.10;4.70;;;20.50;99.90;;;;;;5073637;28;20054;-86
2021/08/31 12:02:26;;;;;;;;;;;20.20;99.90;;;;;;5074554;28;20136;-85
2021/08/31 12:04:56;;;;;;;6.25;4.75;;;19.90;99.90;;;;;;5073110;28;19924;-85
2021/08/31 12:07:38;;;;;;;5.03;4.63;;;19.50;99.90;;;;;;5073346;28;20059;-86
2021/08/31 12:10:09;;;;;;;10.27;4.85;;;19.30;99.90;;;;;;5074432;28;20135;-86
2021/08/31 12:12:41;;;;;;;5.68;4.25;;;19.80;99.90;;;;;;5072968;28;20055;-88
2021/08/31 12:15:08;;;;;;;6.15;4.07;;;20.70;99.90;;;;;;5073068;28;20139;-93
2021/08/31 12:17:39;;;;;;;10.00;4.10;;;21.50;99.90;;;;;;5073429;28;20493;-89
2021/08/31 12:20:15;;;;;;;7.40;4.80;;;21.70;99.90;;;;;;5073121;28;20040;-86
2021/08/31 12:22:46;;;;;;;5.40;4.13;;;21.30;99.90;;;;;;5071574;28;20057;-86
2021/08/31 12:25:14;;;;;;;4.70;4.10;;;20.90;99.90;;;;;;5073226;28;20048;-86
2021/08/31 12:27:47;;;;;;;8.30;4.45;;;20.70;99.90;;;;;;5073240;28;20139;-88
2021/08/31 12:30:17;;;;;;;6.95;4.15;;;20.60;99.90;;;;;;5073479;28;20127;-86
2021/08/31 12:32:53;;;;;;;4.93;4.28;;;20.30;99.90;;;;;;5073135;28;20139;-85
2021/08/31 12:35:37;;;;;;;5.75;4.63;;;19.90;99.90;;;;;;5072750;28;20127;-85
2021/08/31 12:38:20;;;;;;;6.70;4.15;;;20.20;99.90;;;;;;5073963;28;20059;-86
2021/08/31 12:40:59;;;;;;;4.15;3.75;;;20.40;99.90;;;;;;5089355;28;20057;-86
2021/08/31 12:43:28;;;;;;;7.78;4.47;;;20.70;99.90;;;;;;5072977;28;20135;-87
2021/08/31 12:46:00;;;;;;;6.45;4.55;;;20.50;99.90;;;;;;5072614;28;20460;-86
2021/08/31 12:48:38;;;;;;;5.45;4.22;;;20.20;99.90;;;;;;5072758;28;20076;-87